Time;durP1;ratioP1;P1;durP2;ratioP2;P2;SDS_P1;SDS_P2;PMS_P1;PMS_P2;Temp;Humidity;BMP_temperature;BMP_pressure;BME280_temperature;BME280_humidity;BME280_pressure;Samples;Min_cycle;Max_cycle;Signal;HPM_P1;HPM_P2
2023/09/30 00:02:20;;;;;;;11.35;10.85;;;;;;;;;;5109267;27;20336;-66
2023/09/30 00:04:45;;;;;;;11.32;10.82;;;;;;;;;;5102865;28;20068;-67
2023/09/30 00:07:11;;;;;;;11.43;10.93;;;;;;;;;;5104011;28;20030;-67
2023/09/30 00:09:37;;;;;;;10.80;10.30;;;;;;;;;;5106502;28;20383;-66
2023/09/30 00:12:02;;;;;;;11.18;10.68;;;;;;;;;;5110211;27;20019;-67
2023/09/30 00:14:28;;;;;;;11.20;10.70;;;;;;;;;;5108456;27;20043;-67
2023/09/30 00:16:54;;;;;;;11.10;10.60;;;;;;;;;;5107266;27;20023;-66
2023/09/30 00:19:19;;;;;;;11.18;10.68;;;;;;;;;;5106192;27;20363;-68
2023/09/30 00:21:44;;;;;;;11.20;10.70;;;;;;;;;;5104320;27;20026;-68
2023/09/30 00:24:10;;;;;;;10.95;10.45;;;;;;;;;;5085933;28;20019;-68
2023/09/30 00:26:36;;;;;;;11.10;10.60;;;;;;;;;;5107040;28;20054;-67
2023/09/30 00:29:04;;;;;;;10.68;10.18;;;;;;;;;;5107828;27;20055;-67
2023/09/30 00:31:29;;;;;;;11.05;10.55;;;;;;;;;;5109120;28;20030;-68
2023/09/30 00:33:55;;;;;;;11.32;10.82;;;;;;;;;;5110887;28;20024;-68
2023/09/30 00:36:21;;;;;;;11.15;10.65;;;;;;;;;;5109180;27;20116;-67
2023/09/30 00:38:47;;;;;;;11.25;10.75;;;;;;;;;;5114104;28;20064;-67
2023/09/30 00:41:12;;;;;;;11.23;10.73;;;;;;;;;;5107798;28;20023;-67
2023/09/30 00:43:37;;;;;;;10.88;10.38;;;;;;;;;;5107797;28;20023;-66
2023/09/30 00:46:06;;;;;;;11.00;10.50;;;;;;;;;;5104799;27;20343;-68
2023/09/30 00:48:34;;;;;;;10.93;10.43;;;;;;;;;;5111206;27;20072;-67
2023/09/30 00:51:00;;;;;;;10.95;10.45;;;;;;;;;;5100201;28;20032;-67
2023/09/30 00:53:26;;;;;;;10.60;10.10;;;;;;;;;;5104633;28;20061;-67
2023/09/30 00:55:52;;;;;;;10.95;10.45;;;;;;;;;;5095051;27;20019;-67
2023/09/30 00:58:17;;;;;;;11.23;10.73;;;;;;;;;;5109365;27;20015;-67
2023/09/30 01:00:43;;;;;;;11.05;10.55;;;;;;;;;;5080082;28;20023;-68
2023/09/30 01:03:08;;;;;;;11.55;11.02;;;;;;;;;;5089026;28;20536;-68
2023/09/30 01:05:34;;;;;;;10.82;10.32;;;;;;;;;;5108921;28;20376;-68
2023/09/30 01:08:02;;;;;;;11.05;10.55;;;;;;;;;;5102386;27;20095;-67
2023/09/30 01:10:28;;;;;;;11.35;10.85;;;;;;;;;;5104128;27;20016;-67
2023/09/30 01:12:53;;;;;;;11.43;10.93;;;;;;;;;;5106264;27;20027;-67
2023/09/30 01:15:18;;;;;;;11.70;11.15;;;;;;;;;;5103543;27;20019;-66
2023/09/30 01:17:44;;;;;;;11.05;10.55;;;;;;;;;;5102125;28;20098;-67
2023/09/30 01:20:19;;;;;;;10.48;9.98;;;;;;;;;;5105739;28;20393;-67
2023/09/30 01:22:45;;;;;;;10.65;10.15;;;;;;;;;;5105730;28;20023;-68
2023/09/30 01:25:11;;;;;;;10.60;10.10;;;;;;;;;;5104583;28;20391;-68
2023/09/30 01:27:36;;;;;;;10.40;9.90;;;;;;;;;;5107261;28;20024;-67
2023/09/30 01:30:02;;;;;;;11.20;10.70;;;;;;;;;;5087373;28;20066;-68
2023/09/30 01:32:28;;;;;;;10.95;10.45;;;;;;;;;;5106154;28;20104;-67
2023/09/30 01:34:53;;;;;;;10.88;10.38;;;;;;;;;;5103566;28;20223;-66
2023/09/30 01:37:19;;;;;;;11.20;10.70;;;;;;;;;;5107148;28;20035;-67
2023/09/30 01:39:45;;;;;;;11.10;10.60;;;;;;;;;;5108972;28;20110;-67
2023/09/30 01:42:10;;;;;;;10.70;10.20;;;;;;;;;;5105615;28;20506;-67
2023/09/30 01:44:36;;;;;;;11.40;10.90;;;;;;;;;;5103000;28;20028;-67
2023/09/30 01:47:01;;;;;;;10.68;10.18;;;;;;;;;;5111363;27;20023;-66
2023/09/30 01:49:26;;;;;;;10.52;10.02;;;;;;;;;;5109472;28;20016;-66
2023/09/30 01:51:52;;;;;;;11.05;10.55;;;;;;;;;;5109539;27;20030;-67
2023/09/30 01:54:17;;;;;;;10.90;10.40;;;;;;;;;;5089239;28;20015;-67
2023/09/30 01:56:42;;;;;;;10.60;10.10;;;;;;;;;;5110475;27;20445;-67
2023/09/30 01:59:08;;;;;;;10.55;10.05;;;;;;;;;;5104820;27;20447;-67
2023/09/30 02:01:33;;;;;;;10.95;10.45;;;;;;;;;;5108352;27;20084;-67
2023/09/30 02:03:59;;;;;;;10.57;10.07;;;;;;;;;;5110964;28;20020;-68
2023/09/30 02:06:24;;;;;;;10.95;10.45;;;;;;;;;;5108630;27;20028;-68
2023/09/30 02:08:49;;;;;;;10.93;10.43;;;;;;;;;;5102214;27;20103;-67
2023/09/30 02:11:14;;;;;;;11.35;10.85;;;;;;;;;;5110500;27;20055;-67
2023/09/30 02:13:41;;;;;;;11.02;10.52;;;;;;;;;;5096453;28;20107;-67
2023/09/30 02:16:11;;;;;;;11.82;11.23;;;;;;;;;;5106483;27;20379;-68
2023/09/30 02:18:36;;;;;;;11.10;10.60;;;;;;;;;;5110628;27;20046;-67
2023/09/30 02:21:01;;;;;;;10.68;10.18;;;;;;;;;;5111968;27;20059;-67
2023/09/30 02:23:27;;;;;;;11.13;10.63;;;;;;;;;;5112745;27;20023;-67
2023/09/30 02:25:52;;;;;;;10.98;10.48;;;;;;;;;;5110172;28;20020;-66
2023/09/30 02:28:17;;;;;;;11.23;10.73;;;;;;;;;;5112708;27;20747;-67
2023/09/30 02:30:43;;;;;;;11.27;10.77;;;;;;;;;;5095721;28;20015;-68
2023/09/30 02:33:08;;;;;;;10.80;10.30;;;;;;;;;;5099849;28;20563;-67
2023/09/30 02:35:33;;;;;;;10.60;10.10;;;;;;;;;;5110995;27;20410;-66
2023/09/30 02:37:58;;;;;;;11.20;10.70;;;;;;;;;;5105218;27;20020;-68
2023/09/30 02:40:25;;;;;;;10.98;10.48;;;;;;;;;;5087947;27;20123;-67
2023/09/30 02:42:51;;;;;;;10.63;10.13;;;;;;;;;;5086987;28;20474;-68
2023/09/30 02:45:20;;;;;;;10.82;10.32;;;;;;;;;;5107128;27;20020;-67
2023/09/30 02:47:46;;;;;;;11.40;10.90;;;;;;;;;;5110404;28;20382;-68
2023/09/30 02:50:12;;;;;;;10.75;10.25;;;;;;;;;;5109055;28;20023;-68
2023/09/30 02:52:40;;;;;;;10.57;10.07;;;;;;;;;;5093339;28;20024;-67
2023/09/30 02:55:06;;;;;;;11.20;10.70;;;;;;;;;;5111414;28;20016;-67
2023/09/30 02:57:33;;;;;;;10.90;10.40;;;;;;;;;;5113889;27;20016;-66
2023/09/30 03:00:00;;;;;;;11.45;10.90;;;;;;;;;;5096527;28;20023;-66
2023/09/30 03:02:26;;;;;;;11.27;10.77;;;;;;;;;;5105163;28;20503;-67
2023/09/30 03:04:51;;;;;;;10.95;10.45;;;;;;;;;;5102914;28;20126;-67
2023/09/30 03:07:19;;;;;;;11.50;10.95;;;;;;;;;;5089607;27;20439;-67
2023/09/30 03:09:44;;;;;;;11.57;10.98;;;;;;;;;;5106461;28;20030;-67
2023/09/30 03:12:10;;;;;;;10.85;10.35;;;;;;;;;;5112432;27;20682;-67
2023/09/30 03:14:35;;;;;;;11.25;10.75;;;;;;;;;;5108381;28;20077;-67
2023/09/30 03:17:01;;;;;;;10.38;9.88;;;;;;;;;;5110483;27;20030;-67
2023/09/30 03:19:26;;;;;;;10.60;10.10;;;;;;;;;;5107743;27;20081;-67
2023/09/30 03:21:51;;;;;;;10.70;10.20;;;;;;;;;;5096478;28;20486;-67
2023/09/30 03:24:18;;;;;;;10.88;10.38;;;;;;;;;;5103375;27;20024;-67
2023/09/30 03:26:43;;;;;;;10.75;10.25;;;;;;;;;;5109466;28;20073;-67
2023/09/30 03:29:09;;;;;;;11.15;10.65;;;;;;;;;;5100431;28;20027;-67
2023/09/30 03:31:35;;;;;;;11.38;10.85;;;;;;;;;;5107191;28;20027;-67
2023/09/30 03:34:00;;;;;;;11.20;10.70;;;;;;;;;;5112520;27;20019;-67
2023/09/30 03:36:26;;;;;;;11.15;10.65;;;;;;;;;;5096057;28;20612;-67
2023/09/30 03:38:54;;;;;;;11.18;10.68;;;;;;;;;;5105841;27;20426;-67
2023/09/30 03:41:19;;;;;;;11.20;10.70;;;;;;;;;;5112060;27;20035;-67
2023/09/30 03:43:45;;;;;;;11.63;11.02;;;;;;;;;;5107156;28;20050;-67
2023/09/30 03:46:12;;;;;;;11.68;11.07;;;;;;;;;;5107920;28;20106;-67
2023/09/30 03:48:39;;;;;;;10.80;10.30;;;;;;;;;;5113863;27;20049;-67
2023/09/30 03:51:14;;;;;;;10.82;10.32;;;;;;;;;;5111596;28;20039;-67
2023/09/30 03:53:42;;;;;;;11.43;10.90;;;;;;;;;;5108304;27;20431;-68
2023/09/30 03:56:08;;;;;;;11.30;10.80;;;;;;;;;;5107437;28;20382;-66
2023/09/30 03:58:33;;;;;;;11.50;10.95;;;;;;;;;;5112113;27;20024;-67
2023/09/30 04:01:00;;;;;;;11.02;10.52;;;;;;;;;;5103292;28;20558;-66
2023/09/30 04:03:27;;;;;;;10.60;10.10;;;;;;;;;;5109453;27;20429;-67
2023/09/30 04:05:52;;;;;;;11.25;10.75;;;;;;;;;;5105614;28;20047;-67
2023/09/30 04:08:18;;;;;;;10.60;10.10;;;;;;;;;;5110634;27;20024;-67
2023/09/30 04:10:43;;;;;;;11.02;10.52;;;;;;;;;;5102009;28;20024;-67
2023/09/30 04:13:11;;;;;;;11.27;10.77;;;;;;;;;;5103220;28;20016;-67
2023/09/30 04:15:37;;;;;;;10.45;9.95;;;;;;;;;;5107202;27;20040;-67
2023/09/30 04:18:05;;;;;;;11.45;10.88;;;;;;;;;;5109111;28;20018;-68
2023/09/30 04:20:30;;;;;;;10.75;10.25;;;;;;;;;;5106222;28;20050;-67
2023/09/30 04:22:57;;;;;;;10.43;9.93;;;;;;;;;;5106663;28;20032;-67
2023/09/30 04:25:24;;;;;;;10.43;9.93;;;;;;;;;;5110225;27;20030;-68
2023/09/30 04:27:49;;;;;;;11.68;11.07;;;;;;;;;;5109229;27;20016;-68
2023/09/30 04:30:15;;;;;;;10.75;10.25;;;;;;;;;;5111763;27;20027;-67
2023/09/30 04:32:40;;;;;;;10.18;9.73;;;;;;;;;;5109357;27;20020;-68
2023/09/30 04:35:07;;;;;;;9.98;9.57;;;;;;;;;;5106467;27;20064;-66
2023/09/30 04:37:33;;;;;;;10.70;10.20;;;;;;;;;;5104764;28;20024;-68
2023/09/30 04:39:59;;;;;;;10.82;10.32;;;;;;;;;;5104249;28;20023;-68
2023/09/30 04:42:25;;;;;;;10.57;10.07;;;;;;;;;;5107279;28;20027;-68
2023/09/30 04:44:51;;;;;;;11.23;10.73;;;;;;;;;;5109930;27;20022;-66
2023/09/30 04:47:18;;;;;;;11.18;10.68;;;;;;;;;;5106163;28;20012;-66
2023/09/30 04:49:44;;;;;;;10.57;10.07;;;;;;;;;;5085492;28;20475;-68
2023/09/30 04:52:09;;;;;;;10.75;10.25;;;;;;;;;;5108307;27;20030;-66
2023/09/30 04:54:35;;;;;;;10.80;10.30;;;;;;;;;;5109072;27;20019;-68
2023/09/30 04:57:00;;;;;;;10.90;10.40;;;;;;;;;;5108055;27;20412;-68
2023/09/30 04:59:26;;;;;;;10.70;10.20;;;;;;;;;;5106740;27;20068;-68
2023/09/30 05:01:51;;;;;;;10.90;10.40;;;;;;;;;;5106592;28;20031;-68
2023/09/30 05:04:17;;;;;;;11.15;10.65;;;;;;;;;;5107421;27;20497;-67
2023/09/30 05:06:42;;;;;;;10.68;10.18;;;;;;;;;;5105842;28;20025;-67
2023/09/30 05:09:07;;;;;;;11.13;10.63;;;;;;;;;;5102802;28;20467;-66
2023/09/30 05:11:35;;;;;;;11.18;10.68;;;;;;;;;;5095981;28;20490;-67
2023/09/30 05:14:04;;;;;;;11.75;11.25;;;;;;;;;;5111621;28;20053;-67
2023/09/30 05:16:31;;;;;;;11.43;10.93;;;;;;;;;;5109319;28;20036;-67
2023/09/30 05:18:57;;;;;;;11.38;10.88;;;;;;;;;;5090690;28;20065;-68
2023/09/30 05:21:22;;;;;;;11.77;11.27;;;;;;;;;;5100886;28;20027;-68
2023/09/30 05:23:47;;;;;;;11.70;11.20;;;;;;;;;;5112178;27;20027;-67
2023/09/30 05:26:13;;;;;;;11.55;11.05;;;;;;;;;;5100269;28;20024;-67
2023/09/30 05:28:39;;;;;;;11.43;10.93;;;;;;;;;;5111045;28;20444;-67
2023/09/30 05:31:05;;;;;;;11.57;11.07;;;;;;;;;;5109231;28;20035;-67
2023/09/30 05:33:30;;;;;;;11.40;10.90;;;;;;;;;;5103495;28;20020;-67
2023/09/30 05:35:55;;;;;;;11.60;11.10;;;;;;;;;;5106535;28;20024;-67
2023/09/30 05:38:23;;;;;;;11.68;11.18;;;;;;;;;;5110827;28;20035;-67
2023/09/30 05:40:49;;;;;;;11.60;11.10;;;;;;;;;;5088826;28;20038;-68
2023/09/30 05:43:16;;;;;;;11.68;11.18;;;;;;;;;;5104941;28;20024;-68
2023/09/30 05:45:49;;;;;;;11.73;11.23;;;;;;;;;;5106341;28;20070;-67
2023/09/30 05:48:15;;;;;;;11.80;11.30;;;;;;;;;;5103850;28;20016;-68
2023/09/30 05:50:40;;;;;;;11.57;11.07;;;;;;;;;;5108983;28;20019;-67
2023/09/30 05:53:06;;;;;;;11.70;11.20;;;;;;;;;;5084169;28;20057;-67
2023/09/30 05:55:31;;;;;;;11.65;11.15;;;;;;;;;;5109201;28;20099;-67
2023/09/30 05:57:56;;;;;;;11.70;11.20;;;;;;;;;;5104581;28;20056;-67
2023/09/30 06:00:23;;;;;;;11.80;11.30;;;;;;;;;;5090503;28;20096;-68
2023/09/30 06:02:48;;;;;;;11.70;11.20;;;;;;;;;;5087048;28;20151;-66
2023/09/30 06:05:15;;;;;;;11.80;11.30;;;;;;;;;;5106350;28;20462;-68
2023/09/30 06:07:41;;;;;;;11.77;11.27;;;;;;;;;;5103367;28;20023;-67
2023/09/30 06:10:06;;;;;;;11.60;11.10;;;;;;;;;;5108806;28;20077;-68
2023/09/30 06:12:32;;;;;;;11.93;11.43;;;;;;;;;;5100752;28;20475;-67
2023/09/30 06:14:58;;;;;;;11.95;11.45;;;;;;;;;;5095210;28;20020;-69
2023/09/30 06:17:23;;;;;;;12.05;11.55;;;;;;;;;;5110159;28;20092;-67
2023/09/30 06:19:50;;;;;;;11.75;11.25;;;;;;;;;;5108353;28;20565;-67
2023/09/30 06:22:16;;;;;;;11.75;11.25;;;;;;;;;;5106221;28;20023;-67
2023/09/30 06:24:41;;;;;;;11.90;11.40;;;;;;;;;;5097600;28;20094;-68
2023/09/30 06:27:07;;;;;;;11.93;11.43;;;;;;;;;;5106334;28;20051;-68
2023/09/30 06:29:33;;;;;;;11.70;11.20;;;;;;;;;;5110930;28;20039;-68
2023/09/30 06:31:59;;;;;;;12.20;11.70;;;;;;;;;;5102341;28;20084;-68
2023/09/30 06:34:24;;;;;;;12.00;11.50;;;;;;;;;;5111976;27;20431;-69
2023/09/30 06:36:49;;;;;;;11.90;11.40;;;;;;;;;;5113054;27;20039;-67
2023/09/30 06:39:15;;;;;;;11.88;11.38;;;;;;;;;;5109469;27;20339;-67
2023/09/30 06:41:40;;;;;;;12.13;11.63;;;;;;;;;;5108283;28;20023;-68
2023/09/30 06:44:05;;;;;;;12.20;11.70;;;;;;;;;;5091191;27;20367;-67
2023/09/30 06:46:31;;;;;;;11.90;11.40;;;;;;;;;;5110387;27;20447;-67
2023/09/30 06:48:56;;;;;;;12.13;11.63;;;;;;;;;;5099179;28;20766;-69
2023/09/30 06:51:21;;;;;;;12.02;11.52;;;;;;;;;;5091541;28;20357;-67
2023/09/30 06:53:47;;;;;;;11.77;11.27;;;;;;;;;;5079819;27;20038;-67
2023/09/30 06:56:15;;;;;;;11.90;11.40;;;;;;;;;;5103060;28;20019;-69
2023/09/30 06:58:40;;;;;;;12.02;11.52;;;;;;;;;;5109211;27;20020;-68
2023/09/30 07:01:06;;;;;;;11.68;11.18;;;;;;;;;;5089282;27;20018;-69
2023/09/30 07:03:33;;;;;;;12.18;11.68;;;;;;;;;;5099312;28;20099;-67
2023/09/30 07:06:00;;;;;;;12.27;11.77;;;;;;;;;;5095920;27;20074;-66
2023/09/30 07:08:26;;;;;;;12.15;11.65;;;;;;;;;;5097660;27;20355;-68
2023/09/30 07:10:52;;;;;;;12.30;11.80;;;;;;;;;;5101714;27;20017;-67
2023/09/30 07:13:18;;;;;;;11.77;11.27;;;;;;;;;;5091399;28;20039;-67
2023/09/30 07:15:43;;;;;;;12.10;11.60;;;;;;;;;;5110453;27;20031;-67
2023/09/30 07:18:08;;;;;;;11.80;11.30;;;;;;;;;;5111758;27;20068;-68
2023/09/30 07:20:34;;;;;;;12.00;11.50;;;;;;;;;;5112006;27;20435;-68
2023/09/30 07:23:03;;;;;;;11.80;11.30;;;;;;;;;;5113626;27;20020;-65
2023/09/30 07:25:31;;;;;;;11.85;11.35;;;;;;;;;;5109485;27;20592;-67
2023/09/30 07:27:57;;;;;;;11.88;11.38;;;;;;;;;;5105358;27;20078;-66
2023/09/30 07:30:22;;;;;;;12.10;11.60;;;;;;;;;;5110952;27;20112;-67
2023/09/30 07:32:48;;;;;;;12.20;11.70;;;;;;;;;;5110345;27;20031;-68
2023/09/30 07:35:15;;;;;;;12.13;11.63;;;;;;;;;;5109106;27;20031;-67
2023/09/30 07:37:41;;;;;;;12.00;11.50;;;;;;;;;;5112847;27;20266;-68
2023/09/30 07:40:06;;;;;;;11.75;11.25;;;;;;;;;;5111717;27;20081;-68
2023/09/30 07:42:33;;;;;;;12.20;11.70;;;;;;;;;;5110405;27;20055;-68
2023/09/30 07:44:58;;;;;;;11.88;11.38;;;;;;;;;;5110188;28;20023;-67
2023/09/30 07:47:23;;;;;;;12.05;11.55;;;;;;;;;;5109670;28;20020;-67
2023/09/30 07:49:50;;;;;;;11.90;11.40;;;;;;;;;;5109149;28;20020;-67
2023/09/30 07:52:15;;;;;;;11.98;11.48;;;;;;;;;;5110350;27;20357;-68
2023/09/30 07:54:40;;;;;;;11.98;11.48;;;;;;;;;;5108555;27;20050;-68
2023/09/30 07:57:06;;;;;;;11.65;11.15;;;;;;;;;;5089675;28;20039;-67
2023/09/30 07:59:33;;;;;;;11.93;11.43;;;;;;;;;;5109888;27;20422;-68
2023/09/30 08:01:58;;;;;;;11.95;11.45;;;;;;;;;;5108203;28;20302;-69
2023/09/30 08:04:23;;;;;;;11.73;11.23;;;;;;;;;;5111629;27;20039;-68
2023/09/30 08:06:50;;;;;;;12.05;11.55;;;;;;;;;;5091238;28;20360;-68
2023/09/30 08:09:18;;;;;;;12.00;11.50;;;;;;;;;;5110487;28;20503;-66
2023/09/30 08:11:43;;;;;;;11.93;11.43;;;;;;;;;;5112281;28;20032;-67
2023/09/30 08:14:09;;;;;;;12.10;11.60;;;;;;;;;;5108267;27;20073;-68
2023/09/30 08:16:35;;;;;;;11.82;11.32;;;;;;;;;;5106674;28;20020;-67
2023/09/30 08:19:00;;;;;;;11.70;11.20;;;;;;;;;;5106865;28;20064;-67
2023/09/30 08:21:26;;;;;;;12.02;11.52;;;;;;;;;;5105207;27;20532;-67
2023/09/30 08:23:51;;;;;;;12.05;11.55;;;;;;;;;;5111132;27;20027;-68
2023/09/30 08:26:16;;;;;;;11.90;11.40;;;;;;;;;;5107515;27;20068;-67
2023/09/30 08:28:41;;;;;;;12.02;11.52;;;;;;;;;;5109806;28;20251;-67
2023/09/30 08:31:08;;;;;;;11.80;11.30;;;;;;;;;;5083248;28;20020;-68
2023/09/30 08:33:35;;;;;;;11.73;11.23;;;;;;;;;;5110488;28;20043;-67
2023/09/30 08:36:03;;;;;;;11.90;11.40;;;;;;;;;;5109931;28;20016;-67
2023/09/30 08:38:28;;;;;;;11.68;11.18;;;;;;;;;;5110280;27;20027;-67
2023/09/30 08:40:54;;;;;;;11.90;11.40;;;;;;;;;;5112720;27;20100;-68
2023/09/30 08:43:23;;;;;;;11.98;11.48;;;;;;;;;;5109019;28;20313;-66
2023/09/30 08:45:51;;;;;;;12.07;11.57;;;;;;;;;;5112817;27;20050;-67
2023/09/30 08:48:17;;;;;;;11.90;11.40;;;;;;;;;;5110932;27;20053;-67
2023/09/30 08:50:43;;;;;;;12.10;11.60;;;;;;;;;;5108862;28;20097;-67
2023/09/30 08:53:10;;;;;;;12.00;11.50;;;;;;;;;;5103546;28;20015;-67
2023/09/30 08:55:37;;;;;;;11.57;11.07;;;;;;;;;;5104322;28;20023;-69
2023/09/30 08:58:02;;;;;;;11.60;11.10;;;;;;;;;;5105966;27;20020;-66
2023/09/30 09:00:28;;;;;;;11.80;11.30;;;;;;;;;;5110041;27;20585;-67
2023/09/30 09:02:53;;;;;;;11.65;11.15;;;;;;;;;;5108212;28;20019;-67
2023/09/30 09:05:18;;;;;;;12.05;11.55;;;;;;;;;;5098164;28;20056;-67
2023/09/30 09:07:44;;;;;;;11.90;11.40;;;;;;;;;;5103421;28;20077;-67
2023/09/30 09:10:12;;;;;;;11.95;11.45;;;;;;;;;;5103458;28;20110;-66
2023/09/30 09:12:41;;;;;;;12.27;11.77;;;;;;;;;;5107916;28;20026;-67
2023/09/30 09:15:07;;;;;;;12.25;11.75;;;;;;;;;;5107285;28;20008;-68
2023/09/30 09:17:42;;;;;;;11.70;11.20;;;;;;;;;;5107454;28;20026;-67
2023/09/30 09:20:12;;;;;;;12.05;11.55;;;;;;;;;;5110122;28;20482;-68
2023/09/30 09:22:39;;;;;;;12.00;11.50;;;;;;;;;;5088728;28;20110;-68
2023/09/30 09:25:04;;;;;;;11.90;11.40;;;;;;;;;;5106387;28;20032;-67
2023/09/30 09:27:33;;;;;;;11.93;11.43;;;;;;;;;;5107892;28;20521;-68
2023/09/30 09:30:13;;;;;;;11.90;11.40;;;;;;;;;;5106491;28;20489;-68
2023/09/30 09:32:38;;;;;;;11.88;11.38;;;;;;;;;;5105168;28;20114;-68
2023/09/30 09:35:05;;;;;;;11.90;11.40;;;;;;;;;;5106988;28;20102;-66
2023/09/30 09:37:32;;;;;;;11.57;11.07;;;;;;;;;;5103266;28;20023;-68
2023/09/30 09:39:57;;;;;;;11.77;11.27;;;;;;;;;;5109747;28;20515;-67
2023/09/30 09:42:26;;;;;;;11.55;11.05;;;;;;;;;;5106975;28;20023;-67
2023/09/30 09:44:53;;;;;;;11.60;11.10;;;;;;;;;;5109206;28;20023;-67
2023/09/30 09:47:21;;;;;;;11.82;11.32;;;;;;;;;;5108943;28;20747;-66
2023/09/30 09:49:47;;;;;;;11.77;11.27;;;;;;;;;;5105874;28;20020;-67
2023/09/30 09:52:15;;;;;;;11.73;11.23;;;;;;;;;;5106741;28;20096;-66
2023/09/30 09:54:40;;;;;;;11.45;10.95;;;;;;;;;;5107248;28;20023;-68
2023/09/30 09:57:07;;;;;;;11.63;11.13;;;;;;;;;;5107117;28;20069;-67
2023/09/30 09:59:32;;;;;;;11.75;11.25;;;;;;;;;;5112597;28;20662;-67
2023/09/30 10:01:58;;;;;;;11.82;11.32;;;;;;;;;;5090971;28;20023;-68
2023/09/30 10:04:24;;;;;;;11.75;11.25;;;;;;;;;;5102843;28;20478;-67
2023/09/30 10:06:53;;;;;;;11.88;11.38;;;;;;;;;;5108873;28;20055;-66
2023/09/30 10:09:18;;;;;;;11.40;10.90;;;;;;;;;;5115902;27;20039;-68
2023/09/30 10:11:45;;;;;;;11.40;10.90;;;;;;;;;;5109714;27;20467;-67
2023/09/30 10:14:30;;;;;;;11.60;11.10;;;;;;;;;;5112069;27;20024;-67
2023/09/30 10:16:55;;;;;;;11.52;11.02;;;;;;;;;;5103412;28;20119;-67
2023/09/30 10:19:25;;;;;;;11.73;11.23;;;;;;;;;;5109911;28;20074;-66
2023/09/30 10:22:09;;;;;;;11.52;11.02;;;;;;;;;;5110205;27;20053;-68
2023/09/30 10:24:34;;;;;;;12.00;11.50;;;;;;;;;;5110676;27;20077;-66
2023/09/30 10:27:31;;;;;;;11.63;11.13;;;;;;;;;;5091490;28;20031;-68
2023/09/30 10:30:10;;;;;;;11.50;11.00;;;;;;;;;;5106240;28;20027;-68
2023/09/30 10:32:50;;;;;;;11.40;10.90;;;;;;;;;;5108429;28;20060;-68
2023/09/30 10:35:28;;;;;;;11.68;11.18;;;;;;;;;;5097897;28;20548;-67
2023/09/30 10:38:12;;;;;;;11.80;11.30;;;;;;;;;;5112460;27;20575;-67
2023/09/30 10:40:37;;;;;;;11.60;11.10;;;;;;;;;;5099724;28;20016;-67
2023/09/30 10:43:02;;;;;;;11.63;11.13;;;;;;;;;;5110284;28;20031;-67
2023/09/30 10:45:40;;;;;;;11.80;11.30;;;;;;;;;;5109321;28;20478;-67
2023/09/30 10:48:24;;;;;;;11.38;10.88;;;;;;;;;;5114022;27;20076;-67
2023/09/30 10:50:50;;;;;;;11.25;10.75;;;;;;;;;;5109133;28;20368;-67
2023/09/30 10:53:17;;;;;;;11.73;11.23;;;;;;;;;;5111363;28;20019;-67
2023/09/30 10:55:44;;;;;;;11.50;11.00;;;;;;;;;;5108154;28;20043;-68
2023/09/30 10:58:09;;;;;;;11.82;11.32;;;;;;;;;;5096606;27;20190;-67
2023/09/30 11:00:34;;;;;;;11.45;10.95;;;;;;;;;;5106950;27;20103;-67
2023/09/30 11:03:00;;;;;;;11.57;11.07;;;;;;;;;;5106771;27;20115;-66
2023/09/30 11:05:25;;;;;;;11.32;10.82;;;;;;;;;;5111965;28;20050;-66
2023/09/30 11:07:52;;;;;;;11.48;10.98;;;;;;;;;;5110207;27;20046;-67
2023/09/30 11:10:18;;;;;;;11.77;11.27;;;;;;;;;;5110481;27;20072;-67
2023/09/30 11:12:53;;;;;;;11.65;11.15;;;;;;;;;;5091011;28;20024;-67
2023/09/30 11:15:18;;;;;;;11.65;11.15;;;;;;;;;;5113749;27;20030;-67
2023/09/30 11:17:44;;;;;;;11.60;11.10;;;;;;;;;;5108870;27;20103;-68
2023/09/30 11:20:10;;;;;;;11.55;11.05;;;;;;;;;;5106618;28;20378;-67
2023/09/30 11:22:35;;;;;;;11.65;11.15;;;;;;;;;;5095944;28;20023;-67
2023/09/30 11:25:00;;;;;;;11.73;11.23;;;;;;;;;;5107314;27;20040;-68
2023/09/30 11:27:26;;;;;;;11.85;11.35;;;;;;;;;;5109084;27;20075;-68
2023/09/30 11:29:51;;;;;;;11.80;11.30;;;;;;;;;;5109078;28;20061;-67
2023/09/30 11:32:28;;;;;;;11.70;11.20;;;;;;;;;;5112132;27;20032;-67
2023/09/30 11:34:53;;;;;;;11.60;11.10;;;;;;;;;;5090470;28;20023;-67
2023/09/30 11:37:19;;;;;;;11.52;11.02;;;;;;;;;;5104165;28;20032;-66
2023/09/30 11:39:44;;;;;;;11.77;11.27;;;;;;;;;;5109412;28;20050;-67
2023/09/30 11:42:20;;;;;;;11.90;11.40;;;;;;;;;;5111140;27;20019;-68
2023/09/30 11:44:50;;;;;;;11.40;10.90;;;;;;;;;;5107142;28;20675;-69
2023/09/30 11:47:16;;;;;;;11.70;11.20;;;;;;;;;;5107554;27;20036;-67
2023/09/30 11:49:44;;;;;;;11.75;11.25;;;;;;;;;;5108863;28;20090;-69
2023/09/30 11:52:14;;;;;;;11.65;11.15;;;;;;;;;;5113876;28;20035;-68
2023/09/30 11:54:42;;;;;;;11.75;11.25;;;;;;;;;;5090233;28;20054;-68
2023/09/30 11:57:11;;;;;;;11.80;11.30;;;;;;;;;;5106707;27;20028;-68
2023/09/30 11:59:37;;;;;;;11.27;10.77;;;;;;;;;;5110115;27;20096;-67
2023/09/30 12:02:03;;;;;;;11.38;10.88;;;;;;;;;;5103845;27;20062;-66
2023/09/30 12:04:29;;;;;;;11.60;11.10;;;;;;;;;;5107288;27;20430;-67
2023/09/30 12:06:55;;;;;;;11.63;11.13;;;;;;;;;;5108730;27;20483;-69
2023/09/30 12:09:25;;;;;;;11.85;11.35;;;;;;;;;;5106977;27;20059;-70
2023/09/30 12:11:51;;;;;;;11.70;11.20;;;;;;;;;;5111778;27;20151;-68
2023/09/30 12:14:16;;;;;;;11.55;11.05;;;;;;;;;;5107737;28;20030;-69
2023/09/30 12:16:44;;;;;;;11.35;10.85;;;;;;;;;;5087548;28;20566;-68
2023/09/30 12:19:10;;;;;;;11.88;11.38;;;;;;;;;;5103510;28;20020;-67
2023/09/30 12:21:36;;;;;;;11.45;10.95;;;;;;;;;;5110561;27;20558;-67
2023/09/30 12:24:03;;;;;;;11.93;11.43;;;;;;;;;;5103585;28;20028;-68
2023/09/30 12:26:28;;;;;;;11.55;11.05;;;;;;;;;;5106122;27;20027;-68
2023/09/30 12:28:54;;;;;;;11.50;11.00;;;;;;;;;;5110877;27;20076;-67
2023/09/30 12:31:20;;;;;;;11.88;11.38;;;;;;;;;;5109467;27;20078;-67
2023/09/30 12:33:50;;;;;;;11.50;11.00;;;;;;;;;;5108392;28;20034;-68
2023/09/30 12:36:16;;;;;;;11.55;11.05;;;;;;;;;;5104289;27;20016;-67
2023/09/30 12:38:42;;;;;;;11.38;10.88;;;;;;;;;;5108594;27;20436;-68
2023/09/30 12:41:08;;;;;;;11.45;10.95;;;;;;;;;;5107638;27;20099;-67
2023/09/30 12:43:34;;;;;;;11.75;11.25;;;;;;;;;;5108672;27;20020;-68
2023/09/30 12:45:59;;;;;;;12.02;11.52;;;;;;;;;;5099992;27;20030;-65
2023/09/30 12:48:24;;;;;;;11.48;10.98;;;;;;;;;;5068429;28;20126;-68
2023/09/30 12:50:50;;;;;;;11.95;11.45;;;;;;;;;;5084456;28;20479;-68
2023/09/30 12:53:15;;;;;;;11.70;11.20;;;;;;;;;;5107952;28;20073;-67
2023/09/30 12:55:41;;;;;;;11.70;11.20;;;;;;;;;;5078650;28;20026;-69
2023/09/30 12:58:06;;;;;;;11.85;11.35;;;;;;;;;;5098983;28;20023;-66
2023/09/30 13:00:32;;;;;;;11.70;11.20;;;;;;;;;;5099028;27;20016;-66
2023/09/30 13:02:58;;;;;;;11.73;11.23;;;;;;;;;;5098854;28;20343;-67
2023/09/30 13:05:24;;;;;;;11.85;11.35;;;;;;;;;;5089663;28;20056;-68
2023/09/30 13:07:50;;;;;;;11.68;11.18;;;;;;;;;;5098837;28;20532;-67
2023/09/30 13:10:15;;;;;;;12.13;11.63;;;;;;;;;;5097998;27;20024;-67
2023/09/30 13:12:41;;;;;;;11.43;10.93;;;;;;;;;;5098752;27;20028;-67
2023/09/30 13:15:08;;;;;;;11.63;11.13;;;;;;;;;;5103104;27;20015;-67
2023/09/30 13:17:34;;;;;;;11.57;11.07;;;;;;;;;;5102809;27;20331;-66
2023/09/30 13:19:59;;;;;;;11.60;11.10;;;;;;;;;;5099637;28;20069;-66
2023/09/30 13:22:24;;;;;;;12.07;11.57;;;;;;;;;;5092509;28;20027;-65
2023/09/30 13:24:52;;;;;;;11.50;11.00;;;;;;;;;;5103432;28;20015;-71
2023/09/30 13:27:18;;;;;;;11.75;11.25;;;;;;;;;;5098749;28;20019;-69
2023/09/30 13:29:45;;;;;;;11.80;11.30;;;;;;;;;;5095957;28;20028;-70
2023/09/30 13:32:10;;;;;;;11.40;10.90;;;;;;;;;;5100143;28;20118;-69
2023/09/30 13:34:36;;;;;;;11.32;10.82;;;;;;;;;;5097516;28;20019;-70
2023/09/30 13:37:01;;;;;;;11.43;10.93;;;;;;;;;;5106177;28;20091;-69
2023/09/30 13:39:27;;;;;;;11.63;11.13;;;;;;;;;;5106451;28;20012;-69
2023/09/30 13:41:52;;;;;;;11.45;10.95;;;;;;;;;;5095924;28;20028;-69
2023/09/30 13:44:18;;;;;;;11.18;10.68;;;;;;;;;;5115191;27;20039;-71
2023/09/30 13:46:44;;;;;;;11.38;10.88;;;;;;;;;;5107195;27;20024;-70
2023/09/30 13:49:09;;;;;;;11.45;10.95;;;;;;;;;;5089324;28;20187;-69
2023/09/30 13:51:34;;;;;;;11.13;10.63;;;;;;;;;;5104852;28;20020;-71
2023/09/30 13:54:00;;;;;;;11.47;10.97;;;;;;;;;;5112683;27;20016;-70
2023/09/30 13:56:25;;;;;;;11.38;10.88;;;;;;;;;;5093441;28;20290;-70
2023/09/30 13:58:50;;;;;;;11.70;11.20;;;;;;;;;;5106894;27;20028;-70
2023/09/30 14:01:17;;;;;;;11.43;10.93;;;;;;;;;;5090892;28;20015;-70
2023/09/30 14:03:43;;;;;;;11.38;10.88;;;;;;;;;;5106170;27;20022;-70
2023/09/30 14:06:12;;;;;;;11.20;10.70;;;;;;;;;;5100337;27;20039;-69
2023/09/30 14:08:37;;;;;;;11.48;10.98;;;;;;;;;;5105631;27;20479;-68
2023/09/30 14:11:02;;;;;;;11.20;10.70;;;;;;;;;;5108300;27;20107;-71
2023/09/30 14:13:28;;;;;;;11.27;10.77;;;;;;;;;;5092306;28;20047;-70